Terminal Aerodrome Forecast
Issued by NWS Portland, OR

Home | Current Version | Previous Version | Text Only | Print | Product List | Glossary On
Versions: 1 2 3 4 5 6 7 8 9 10 11 12 13 14 15
000
FTUS46 KPQR 250520
TAFEUG
TAF
KEUG 250520Z 2506/2606 01008KT P6SM SKC
     FM250700 VRB03KT P6SM SKC
     FM251700 02012G16KT P6SM SKC
     FM260400 02005KT P6SM SKC=

USA.gov is the U.S. government's official web portal to all federal, state and local government web resources and services.